Pelagia — PGRQ — position and weather

sailwx.info

Track history (hours):
 
Tides and Currents Weather Stations Pressure Air Temp Water Temp Dewpoint Dewpoint Depression Visibility Wind Speed Wind Dir Waves Ship Positions

Oceanographic research ship Pelagia (Netherlands)

Detailed information on ship capabilities available from University of Delaware's Ocean Information Center and ARCUS's ALIAS (Arctic Logistics Information and Support) project.

Last reported at 2019-Dec-11 09:00 UTC. Time now 2019-Dec-11 10:45 UTC.
Position N 17°42' W 063°30'.

Length 66 m; beam 13 m.

Type: Dredging. MMSI: 244925000.

Barometer 1014.7 mb

Date/timePositionNaut miles runAvg speedWind from/ knotsBaromVisibWave heightAir tempDewpointWater temp
2019-Dec-11 09:00N 17°42' W 063°30'2481.1 1014.7
2019-Dec-11 08:59N 17°41' W 063°32'4 4.1
2019-Dec-11 08:00N 17°42' W 063°36'0 0.0 1014.4
2019-Dec-11 07:00N 17°42' W 063°36'0 0.0 1014.7
2019-Dec-11 06:00N 17°42' W 063°36'0 0.0 1015.4
2019-Dec-11 05:00N 17°42' W 063°36'1 1.2 1016.3
2019-Dec-11 04:29N 17°42' W 063°36'1 1.2
2019-Dec-11 04:00N 17°42' W 063°36'0 0.0 1016.6
2019-Dec-11 03:00N 17°42' W 063°36'0 0.0 1016.9
2019-Dec-11 02:00N 17°42' W 063°36'0 0.0 1017.4
2019-Dec-11 01:00N 17°42' W 063°36'0 0.0 1016.9
2019-Dec-11 00:00N 17°42' W 063°36'0 0.0 1016.4
2019-Dec-10 23:00N 17°42' W 063°36'4 8.5 1015.9
2019-Dec-10 22:32N 17°41' W 063°32'3 6.0
2019-Dec-10 22:00N 17°41' W 063°29'2440.5
2019-Dec-10 22:00N 17°42' W 063°30'0 0.0 1016.0
2019-Dec-10 21:00N 17°42' W 063°30'0 0.0 1015.0
2019-Dec-10 20:00N 17°42' W 063°30'0 0.0 1014.9
2019-Dec-10 19:00N 17°42' W 063°30'1 2.2 1015.0
2019-Dec-10 18:20N 17°41' W 063°29'1 4.3
2019-Dec-10 18:00N 17°42' W 063°30'0 0.0 1015.5
2019-Dec-10 16:00N 17°42' W 063°30'0 0.0 1017.1
2019-Dec-10 15:00N 17°42' W 063°30'1 1.6 1017.7
2019-Dec-10 14:06N 17°41' W 063°29'113.8
2019-Dec-10 14:00N 17°42' W 063°30'0 0.0 1017.9
2019-Dec-10 13:00N 17°42' W 063°30'115.5 1017.7
2019-Dec-10 12:55N 17°41' W 063°29'1 1.4
2019-Dec-10 12:00N 17°42' W 063°30'1 1.3 1016.9
2019-Dec-10 11:29N 17°42' W 063°29'1 1.3
2019-Dec-10 11:00N 17°42' W 063°30'0 0.0 1015.9
2019-Dec-10 10:00N 17°42' W 063°30'0 0.0 1015.7
2019-Dec-10 09:00N 17°42' W 063°30'0 0.0 1015.3
2019-Dec-10 08:00N 17°42' W 063°30'0 0.0 1015.1
2019-Dec-10 07:00N 17°42' W 063°30'2 4.3 1015.1
2019-Dec-10 06:29N 17°40' W 063°29'5 9.7
2019-Dec-10 06:00N 17°42' W 063°24'0 0.0 1016.0
2019-Dec-10 05:00N 17°42' W 063°24'3 6.3 1016.5
2019-Dec-10 04:28N 17°44' W 063°26'1 1.0
2019-Dec-10 03:28N 17°44' W 063°28'3 6.9
2019-Dec-10 03:00N 17°42' W 063°30'313.7 1017.1
2019-Dec-10 02:47N 17°44' W 063°28'1 0.9
2019-Dec-10 02:00N 17°44' W 063°29'39314.1
2019-Dec-10 02:00N 17°42' W 063°30'0 0.0 1017.4
2019-Dec-10 01:00N 17°42' W 063°30'0 0.0 1017.2
2019-Dec-10 00:00N 17°42' W 063°30'0 0.0 1016.5
2019-Dec-09 23:00N 17°42' W 063°30'0 0.0 1015.9
2019-Dec-09 22:00N 17°42' W 063°30'2 4.1 1015.3
2019-Dec-09 21:35N 17°41' W 063°28'2 2.8
2019-Dec-09 21:00N 17°42' W 063°30'1775.9 1015.1
2019-Dec-09 20:59N 17°41' W 063°29'1 1.0
2019-Dec-09 20:18N 17°41' W 063°30'1 2.9
2019-Dec-09 20:00N 17°42' W 063°30'21746.4 1014.6
2019-Dec-09 19:59N 17°41' W 063°28'2 1.9
2019-Dec-09 19:00N 17°42' W 063°30'0 0.0 1014.6
2019-Dec-09 18:00N 17°42' W 063°30'131.6 1015.1
2019-Dec-09 17:57N 17°41' W 063°29'1 1.5
2019-Dec-09 17:00N 17°42' W 063°30'0 0.0 1015.9
2019-Dec-09 16:00N 17°42' W 063°30'0 0.0 1016.9
2019-Dec-09 15:00N 17°42' W 063°30'0 0.0 1017.5
2019-Dec-09 14:00N 17°42' W 063°30'0 0.0 1017.6
2019-Dec-09 13:00N 17°42' W 063°30'0 0.0 1017.6
2019-Dec-09 12:00N 17°42' W 063°30'0 0.0 1016.5
2019-Dec-09 11:00N 17°42' W 063°30'0 0.0 1015.9
2019-Dec-09 10:00N 17°42' W 063°30'0 0.0 1015.2
2019-Dec-09 09:00N 17°42' W 063°30'0 0.0 1014.8
2019-Dec-09 08:00N 17°42' W 063°30'0 0.0 1014.5
2019-Dec-09 07:00N 17°42' W 063°30'157.7 1014.7
2019-Dec-09 06:59N 17°42' W 063°29'1 0.6
2019-Dec-09 06:00N 17°42' W 063°30'0 0.0 1015.3
2019-Dec-09 05:00N 17°42' W 063°30'0 0.0 1015.8
2019-Dec-09 04:00N 17°42' W 063°30'1 2.5 1016.2
2019-Dec-09 03:30N 17°41' W 063°30'1 2.4
2019-Dec-09 03:00N 17°42' W 063°30'0 0.0 1016.4
2019-Dec-09 02:00N 17°42' W 063°30'0 0.0 1016.8
2019-Dec-09 01:00N 17°42' W 063°30'8 8.3 1016.4
2019-Dec-09 00:00N 17°36' W 063°24'1312.9 1016.0
2019-Dec-08 23:00N 17°30' W 063°12'6 7.6 1015.6
2019-Dec-08 22:13N 17°30' W 063°06'0 0.9
2019-Dec-08 22:00N 17°30' W 063°06'6 5.7 1015.2
2019-Dec-08 21:00N 17°30' W 063°00'1 1.8 1014.8
2019-Dec-08 20:28N 17°30' W 063°01'2 5.4
2019-Dec-08 20:00N 17°32' W 063°03'4494.6
2019-Dec-08 20:00N 17°30' W 063°06'8 8.3 1014.1
2019-Dec-08 19:00N 17°36' W 063°12'6 5.7 1014.1
2019-Dec-08 18:00N 17°36' W 063°06'253.2 1014.4
2019-Dec-08 17:57N 17°34' W 063°07'2 2.4
2019-Dec-08 17:00N 17°36' W 063°06'6 6.0 1014.9
2019-Dec-08 16:00N 17°30' W 063°06'0 0.0 1015.7
2019-Dec-08 15:00N 17°30' W 063°06'0 0.0 1016.3
2019-Dec-08 14:00N 17°30' W 063°06'6 5.7 1016.5
2019-Dec-08 13:00N 17°30' W 063°00'2 8.2 1016.4
2019-Dec-08 12:46N 17°28' W 063°00'2 2.3
2019-Dec-08 12:00N 17°30' W 063°00'8 8.3 1015.9
2019-Dec-08 11:00N 17°24' W 062°54'1313.3 1015.2
2019-Dec-08 10:00N 17°12' W 062°48'8 8.3 1014.3
2019-Dec-08 09:00N 17°06' W 062°42'211.3 1013.9
2019-Dec-08 08:47N 17°04' W 062°41'6 7.6
2019-Dec-08 08:00N 17°00' W 062°36'1313.3 1013.7
2019-Dec-08 07:00N 16°48' W 062°30'8 8.3 1013.4
2019-Dec-08 06:00N 16°42' W 062°24'8 8.3 1013.9
2019-Dec-08 05:00N 16°36' W 062°18'8 8.3 1014.4
2019-Dec-08 04:00N 16°30' W 062°12'1313.3 1014.7
2019-Dec-08 03:00N 16°18' W 062°06'8 8.3 1015.0
2019-Dec-08 02:00N 16°12' W 062°00'8 8.3 1015.4
2019-Dec-08 01:00N 16°06' W 061°54'8 8.3 1015.1
2019-Dec-08 00:00N 16°00' W 061°48'1211.5 1014.8
2019-Dec-07 23:00N 16°00' W 061°36'8 8.3 1014.7
2019-Dec-07 22:00N 16°06' W 061°30'6 6.0 1014.5
2019-Dec-07 21:00N 16°12' W 061°30'0 0.0 1014.1
2019-Dec-07 20:00N 16°12' W 061°30'0 0.0 1013.8
2019-Dec-07 19:00N 16°12' W 061°30'0 0.0 1013.6
2019-Dec-07 18:00N 16°12' W 061°30'0 0.0 1013.6
2019-Dec-07 17:00N 16°12' W 061°30'0 0.0 1014.3
2019-Dec-07 16:00N 16°12' W 061°30'0 0.0 1015.3
2019-Dec-07 15:00N 16°12' W 061°30'0 0.0 1016.0
2019-Dec-07 14:00N 16°12' W 061°30'0 0.0 1016.8
2019-Dec-07 13:00N 16°12' W 061°30'0 0.0 1016.9
2019-Dec-07 12:00N 16°12' W 061°30'0 0.0 1016.6
2019-Dec-07 11:00N 16°12' W 061°30'0 0.0 1015.9
2019-Dec-07 10:00N 16°12' W 061°30'0 0.0 1015.3
2019-Dec-07 09:00N 16°12' W 061°30'0 0.0 1014.9
2019-Dec-07 08:00N 16°12' W 061°30'0 0.0 1014.5
2019-Dec-07 07:00N 16°12' W 061°30'0 0.0 1014.4
2019-Dec-07 06:00N 16°12' W 061°30'0 0.0 1014.8
2019-Dec-07 05:00N 16°12' W 061°30'0 0.0 1015.1
2019-Dec-07 03:00N 16°12' W 061°30'0 0.0 1015.8
2019-Dec-07 02:00N 16°12' W 061°30'0 0.0 1016.2
2019-Dec-07 01:00N 16°12' W 061°30'0 0.0 1016.2
2019-Dec-07 00:00N 16°12' W 061°30'0 0.0 1015.9
2019-Dec-06 23:00N 16°12' W 061°30'0 0.0 1015.6
2019-Dec-06 22:00N 16°12' W 061°30'0 0.0 1015.1
2019-Dec-06 21:00N 16°12' W 061°30'0 0.0 1014.8
2019-Dec-06 20:00N 16°12' W 061°30'0 0.0 1014.3
2019-Dec-06 19:00N 16°12' W 061°30'0 0.0 1014.1
2019-Dec-06 18:00N 16°12' W 061°30'0 0.0 1014.2
2019-Dec-06 17:00N 16°12' W 061°30'0 0.0 1014.7
2019-Dec-06 16:00N 16°12' W 061°30'0 0.0 1015.8
2019-Dec-06 15:00N 16°12' W 061°30'0 0.0 1016.8
2019-Dec-06 14:00N 16°12' W 061°30'0 0.0 1017.4
2019-Dec-06 13:00N 16°12' W 061°30'0 0.0 1017.4
2019-Dec-06 12:00N 16°12' W 061°30'0 0.0 1016.9
2019-Dec-06 11:00N 16°12' W 061°30'0 0.0 1016.3
2019-Dec-06 10:00N 16°12' W 061°30'0 0.0 1015.8
2019-Dec-06 09:00N 16°12' W 061°30'0 0.0 1015.4
2019-Dec-06 08:00N 16°12' W 061°30'0 0.0 1015.2
2019-Dec-06 07:00N 16°12' W 061°30'0 0.0 1015.1
2019-Dec-06 06:00N 16°12' W 061°30'0 0.0 1015.8
2019-Dec-06 05:00N 16°12' W 061°30'0 0.0 1016.5
2019-Dec-06 04:00N 16°12' W 061°30'0 0.0 1017.0
2019-Dec-06 03:00N 16°12' W 061°30'0 0.0 1017.2
2019-Dec-06 02:00N 16°12' W 061°30'0 0.0 1017.3
2019-Dec-06 01:00N 16°12' W 061°30'0 0.0 1016.7
2019-Dec-06 00:00N 16°12' W 061°30'0 0.0 1016.2
2019-Dec-05 23:00N 16°12' W 061°30'0 0.0 1015.6
2019-Dec-05 22:00N 16°12' W 061°30'0 0.0 1014.8
2019-Dec-05 21:00N 16°12' W 061°30'0 0.0 1014.6
2019-Dec-05 20:00N 16°12' W 061°30'0 0.0 1014.1
2019-Dec-05 19:00N 16°12' W 061°30'0 0.0 1014.1
2019-Dec-05 18:00N 16°12' W 061°30'0 0.0 1014.5
2019-Dec-05 17:00N 16°12' W 061°30'0 0.0 1015.3
2019-Dec-05 16:00N 16°12' W 061°30'0 0.0 1016.2
2019-Dec-05 15:00N 16°12' W 061°30'0 0.0 1016.8
2019-Dec-05 14:00N 16°12' W 061°30'0 0.0 1017.2
2019-Dec-05 13:00N 16°12' W 061°30'0 0.0 1017.3
2019-Dec-05 12:00N 16°12' W 061°30'0 0.0 1016.4
2019-Dec-05 11:00N 16°12' W 061°30'0 0.0 1015.8
2019-Dec-05 10:00N 16°12' W 061°30'0 0.0 1015.2
2019-Dec-05 09:00N 16°12' W 061°30'0 0.0 1014.8
2019-Dec-05 08:00N 16°12' W 061°30'0 0.0 1014.3
2019-Dec-05 07:00N 16°12' W 061°30'0 0.0 1014.3
2019-Dec-05 06:00N 16°12' W 061°30'0 0.0 1014.4
2019-Dec-05 05:00N 16°12' W 061°30'0 0.0 1014.8
2019-Dec-05 04:00N 16°12' W 061°30'0 0.0 1015.0
2019-Dec-05 03:00N 16°12' W 061°30'0 0.0 1015.4
2019-Dec-05 02:00N 16°12' W 061°30'0 0.0 1015.6
2019-Dec-05 01:00N 16°12' W 061°30'0 0.0 1015.6
2019-Dec-05 00:00N 16°12' W 061°30'0 0.0 1015.3
2019-Dec-04 23:00N 16°12' W 061°30'0 0.0 1014.6
2019-Dec-04 22:00N 16°12' W 061°30'0 0.0 1014.3
2019-Dec-04 21:00N 16°12' W 061°30'0 0.0 1013.9
2019-Dec-04 20:00N 16°12' W 061°30'0 0.0 1013.5
2019-Dec-04 19:00N 16°12' W 061°30'0 0.0 1013.4
2019-Dec-04 18:00N 16°12' W 061°30'0 0.0 1013.5
2019-Dec-04 17:00N 16°12' W 061°30'0 0.0 1013.9
2019-Dec-04 16:00N 16°12' W 061°30'0 0.0 1015.0
2019-Dec-04 15:00N 16°12' W 061°30'0 0.0 1015.8
2019-Dec-04 14:00N 16°12' W 061°30'0 0.0 1016.3
2019-Dec-04 13:00N 16°12' W 061°30'0 0.0 1016.1
2019-Dec-04 12:00N 16°12' W 061°30'0 0.0 1015.3
2019-Dec-04 11:00N 16°12' W 061°30'0 0.0 1014.8
2019-Dec-04 10:00N 16°12' W 061°30'0 0.0 1014.1
2019-Dec-04 09:00N 16°12' W 061°30'0 0.0 1013.5
2019-Dec-04 08:00N 16°12' W 061°30'0 0.0 1013.5
2019-Dec-04 07:00N 16°12' W 061°30'0 0.0 1013.6
2019-Dec-04 06:00N 16°12' W 061°30'0 0.0 1014.1
2019-Dec-04 05:00N 16°12' W 061°30'0 0.0 1014.6
2019-Dec-04 04:00N 16°12' W 061°30'0 0.0 1015.0
2019-Dec-04 03:00N 16°12' W 061°30'0 0.0 1015.2
2019-Dec-04 02:00N 16°12' W 061°30'0 0.0 1015.5
2019-Dec-04 01:00N 16°12' W 061°30'0 0.0 1015.4
2019-Dec-04 00:00N 16°12' W 061°30'0 0.0 1015.2
2019-Dec-03 23:00N 16°12' W 061°30'0 0.0 1014.7
2019-Dec-03 22:00N 16°12' W 061°30'0 0.0 1014.2
2019-Dec-03 21:00N 16°12' W 061°30'0 0.0 1013.8
2019-Dec-03 20:00N 16°12' W 061°30'0 0.0 1013.5
2019-Dec-03 19:00N 16°12' W 061°30'0 0.0 1013.4
2019-Dec-03 18:00N 16°12' W 061°30'0 0.0 1013.7
2019-Dec-03 17:00N 16°12' W 061°30'0 0.0 1014.6
2019-Dec-03 16:00N 16°12' W 061°30'0 0.0 1015.0
2019-Dec-03 15:00N 16°12' W 061°30'0 0.0 1015.5
2019-Dec-03 14:00N 16°12' W 061°30'8 8.3 1015.9
2019-Dec-03 13:00N 16°06' W 061°24'6 5.8 1015.9
2019-Dec-03 12:00N 16°06' W 061°18'6 5.8 1015.4
2019-Dec-03 11:00N 16°06' W 061°12'6 5.8 1015.2
2019-Dec-03 10:00N 16°06' W 061°06'6 5.8 1014.8
2019-Dec-03 09:00N 16°06' W 061°00'17 8.6 1014.1
2019-Dec-03 07:00N 16°06' W 060°42'1313.0 1014.1
2019-Dec-03 06:00N 16°12' W 060°30'1211.5 1014.5
2019-Dec-03 05:00N 16°12' W 060°18'1211.5 1015.0
2019-Dec-03 04:00N 16°12' W 060°06'6 5.8 1015.4
2019-Dec-03 03:00N 16°12' W 060°00'1211.5 1015.9
2019-Dec-03 02:00N 16°12' W 059°48'1211.5 1016.2
2019-Dec-03 01:00N 16°12' W 059°36'6 5.8 1016.1
2019-Dec-03 00:00N 16°12' W 059°30'1211.5 1015.5
2019-Dec-02 23:00N 16°12' W 059°18'1211.5 1015.1
2019-Dec-02 22:00N 16°12' W 059°06'1211.5 1014.0
2019-Dec-02 21:00N 16°12' W 058°54'6 5.8 1014.0
2019-Dec-02 20:00N 16°12' W 058°48'1211.5 1015.0
2019-Dec-02 19:00N 16°12' W 058°36'1211.5 1014.7
2019-Dec-02 18:00N 16°12' W 058°24'6 5.8 1015.0
2019-Dec-02 17:00N 16°12' W 058°18'1211.5 1015.2
2019-Dec-02 16:00N 16°12' W 058°06'1211.5 1016.0
2019-Dec-02 15:00N 16°12' W 057°54'1211.5 1016.9
2019-Dec-02 14:00N 16°12' W 057°42'6 5.8 1016.9
2019-Dec-02 13:00N 16°12' W 057°36'1211.5 1017.4
2019-Dec-02 12:00N 16°12' W 057°24'1211.5 1016.7
2019-Dec-02 11:00N 16°12' W 057°12'6 5.8 1015.3
2019-Dec-02 10:00N 16°12' W 057°06'1211.5 1015.4
2019-Dec-02 09:00N 16°12' W 056°54'1211.5 1015.0
2019-Dec-02 08:00N 16°12' W 056°42'1211.5 1014.6
2019-Dec-02 07:00N 16°12' W 056°30'6 5.8 1014.8
2019-Dec-02 06:00N 16°12' W 056°24'1211.5 1015.3
2019-Dec-02 05:00N 16°12' W 056°12'1211.5 1015.6
2019-Dec-02 04:00N 16°12' W 056°00'1211.5 1016.1
2019-Dec-02 03:00N 16°12' W 055°48'6 5.8 1016.3
2019-Dec-02 02:00N 16°12' W 055°42'1313.0 1017.0
2019-Dec-02 01:00N 16°18' W 055°30'1211.5 1016.9
2019-Dec-02 00:00N 16°18' W 055°18'1211.5 1016.5
2019-Dec-01 23:00N 16°18' W 055°06'6 5.8 1016.1
2019-Dec-01 22:00N 16°18' W 055°00'1211.5 1016.0
2019-Dec-01 21:00N 16°18' W 054°48'1211.5 1015.3
2019-Dec-01 20:00N 16°18' W 054°36'1211.5 1015.0
2019-Dec-01 19:00N 16°18' W 054°24'6 5.8 1014.8
2019-Dec-01 18:00N 16°18' W 054°18'1211.5 1014.6
2019-Dec-01 17:00N 16°18' W 054°06'1211.5 1015.1
2019-Dec-01 16:00N 16°18' W 053°54'1211.5 1015.9
2019-Dec-01 15:00N 16°18' W 053°42'6 5.8 1016.1
2019-Dec-01 14:00N 16°18' W 053°36'1211.5 1016.3
2019-Dec-01 13:00N 16°18' W 053°24'1211.5 1016.1
2019-Dec-01 12:00N 16°18' W 053°12'1211.5 1015.6
2019-Dec-01 11:00N 16°18' W 053°00'6 5.8 1014.6
2019-Dec-01 10:00N 16°18' W 052°54'1211.5 1013.8
2019-Dec-01 09:00N 16°18' W 052°42'   1013.5
Track history (hours):
 
Tides and Currents Weather Stations Pressure Air Temp Water Temp Dewpoint Dewpoint Depression Visibility Wind Speed Wind Dir Waves Ship Positions

Oceanographic research ship Pelagia (Netherlands)

Detailed information on ship capabilities available from University of Delaware's Ocean Information Center and ARCUS's ALIAS (Arctic Logistics Information and Support) project.

Last reported at 2019-Dec-11 09:00 UTC. Time now 2019-Dec-11 10:45 UTC.
Position N 17°42' W 063°30'.

Length 66 m; beam 13 m.

Type: Dredging. MMSI: 244925000.

Barometer 1014.7 mb

Date/timePositionNaut miles runAvg speedWind from/ knotsBaromVisibWave heightAir tempDewpointWater temp
2019-Dec-11 09:00N 17°42' W 063°30'2481.1 1014.7
2019-Dec-11 08:59N 17°41' W 063°32'4 4.1
2019-Dec-11 08:00N 17°42' W 063°36'0 0.0 1014.4
2019-Dec-11 07:00N 17°42' W 063°36'0 0.0 1014.7
2019-Dec-11 06:00N 17°42' W 063°36'0 0.0 1015.4
2019-Dec-11 05:00N 17°42' W 063°36'1 1.2 1016.3
2019-Dec-11 04:29N 17°42' W 063°36'1 1.2
2019-Dec-11 04:00N 17°42' W 063°36'0 0.0 1016.6
2019-Dec-11 03:00N 17°42' W 063°36'0 0.0 1016.9
2019-Dec-11 02:00N 17°42' W 063°36'0 0.0 1017.4
2019-Dec-11 01:00N 17°42' W 063°36'0 0.0 1016.9
2019-Dec-11 00:00N 17°42' W 063°36'0 0.0 1016.4
2019-Dec-10 23:00N 17°42' W 063°36'4 8.5 1015.9
2019-Dec-10 22:32N 17°41' W 063°32'3 6.0
2019-Dec-10 22:00N 17°41' W 063°29'2440.5
2019-Dec-10 22:00N 17°42' W 063°30'0 0.0 1016.0
2019-Dec-10 21:00N 17°42' W 063°30'0 0.0 1015.0
2019-Dec-10 20:00N 17°42' W 063°30'0 0.0 1014.9
2019-Dec-10 19:00N 17°42' W 063°30'1 2.2 1015.0
2019-Dec-10 18:20N 17°41' W 063°29'1 4.3
2019-Dec-10 18:00N 17°42' W 063°30'0 0.0 1015.5
2019-Dec-10 16:00N 17°42' W 063°30'0 0.0 1017.1
2019-Dec-10 15:00N 17°42' W 063°30'1 1.6 1017.7
2019-Dec-10 14:06N 17°41' W 063°29'113.8
2019-Dec-10 14:00N 17°42' W 063°30'0 0.0 1017.9
2019-Dec-10 13:00N 17°42' W 063°30'115.5 1017.7
2019-Dec-10 12:55N 17°41' W 063°29'1 1.4
2019-Dec-10 12:00N 17°42' W 063°30'1 1.3 1016.9
2019-Dec-10 11:29N 17°42' W 063°29'1 1.3
2019-Dec-10 11:00N 17°42' W 063°30'0 0.0 1015.9
2019-Dec-10 10:00N 17°42' W 063°30'0 0.0 1015.7
2019-Dec-10 09:00N 17°42' W 063°30'0 0.0 1015.3
2019-Dec-10 08:00N 17°42' W 063°30'0 0.0 1015.1
2019-Dec-10 07:00N 17°42' W 063°30'2 4.3 1015.1
2019-Dec-10 06:29N 17°40' W 063°29'5 9.7
2019-Dec-10 06:00N 17°42' W 063°24'0 0.0 1016.0
2019-Dec-10 05:00N 17°42' W 063°24'3 6.3 1016.5
2019-Dec-10 04:28N 17°44' W 063°26'1 1.0
2019-Dec-10 03:28N 17°44' W 063°28'3 6.9
2019-Dec-10 03:00N 17°42' W 063°30'313.7 1017.1
2019-Dec-10 02:47N 17°44' W 063°28'1 0.9
2019-Dec-10 02:00N 17°44' W 063°29'39314.1
2019-Dec-10 02:00N 17°42' W 063°30'0 0.0 1017.4
2019-Dec-10 01:00N 17°42' W 063°30'0 0.0 1017.2
2019-Dec-10 00:00N 17°42' W 063°30'0 0.0 1016.5
2019-Dec-09 23:00N 17°42' W 063°30'0 0.0 1015.9
2019-Dec-09 22:00N 17°42' W 063°30'2 4.1 1015.3
2019-Dec-09 21:35N 17°41' W 063°28'2 2.8
2019-Dec-09 21:00N 17°42' W 063°30'1775.9 1015.1
2019-Dec-09 20:59N 17°41' W 063°29'1 1.0
2019-Dec-09 20:18N 17°41' W 063°30'1 2.9
2019-Dec-09 20:00N 17°42' W 063°30'21746.4 1014.6
2019-Dec-09 19:59N 17°41' W 063°28'2 1.9
2019-Dec-09 19:00N 17°42' W 063°30'0 0.0 1014.6
2019-Dec-09 18:00N 17°42' W 063°30'131.6 1015.1
2019-Dec-09 17:57N 17°41' W 063°29'1 1.5
2019-Dec-09 17:00N 17°42' W 063°30'0 0.0 1015.9
2019-Dec-09 16:00N 17°42' W 063°30'0 0.0 1016.9
2019-Dec-09 15:00N 17°42' W 063°30'0 0.0 1017.5
2019-Dec-09 14:00N 17°42' W 063°30'0 0.0 1017.6
2019-Dec-09 13:00N 17°42' W 063°30'0 0.0 1017.6
2019-Dec-09 12:00N 17°42' W 063°30'0 0.0 1016.5
2019-Dec-09 11:00N 17°42' W 063°30'0 0.0 1015.9
2019-Dec-09 10:00N 17°42' W 063°30'0 0.0 1015.2
2019-Dec-09 09:00N 17°42' W 063°30'0 0.0 1014.8
2019-Dec-09 08:00N 17°42' W 063°30'0 0.0 1014.5
2019-Dec-09 07:00N 17°42' W 063°30'157.7 1014.7
2019-Dec-09 06:59N 17°42' W 063°29'1 0.6
2019-Dec-09 06:00N 17°42' W 063°30'0 0.0 1015.3
2019-Dec-09 05:00N 17°42' W 063°30'0 0.0 1015.8
2019-Dec-09 04:00N 17°42' W 063°30'1 2.5 1016.2
2019-Dec-09 03:30N 17°41' W 063°30'1 2.4
2019-Dec-09 03:00N 17°42' W 063°30'0 0.0 1016.4
2019-Dec-09 02:00N 17°42' W 063°30'0 0.0 1016.8
2019-Dec-09 01:00N 17°42' W 063°30'8 8.3 1016.4
2019-Dec-09 00:00N 17°36' W 063°24'1312.9 1016.0
2019-Dec-08 23:00N 17°30' W 063°12'6 7.6 1015.6
2019-Dec-08 22:13N 17°30' W 063°06'0 0.9
2019-Dec-08 22:00N 17°30' W 063°06'6 5.7 1015.2
2019-Dec-08 21:00N 17°30' W 063°00'1 1.8 1014.8
2019-Dec-08 20:28N 17°30' W 063°01'2 5.4
2019-Dec-08 20:00N 17°32' W 063°03'4494.6
2019-Dec-08 20:00N 17°30' W 063°06'8 8.3 1014.1
2019-Dec-08 19:00N 17°36' W 063°12'6 5.7 1014.1
2019-Dec-08 18:00N 17°36' W 063°06'253.2 1014.4
2019-Dec-08 17:57N 17°34' W 063°07'2 2.4
2019-Dec-08 17:00N 17°36' W 063°06'6 6.0 1014.9
2019-Dec-08 16:00N 17°30' W 063°06'0 0.0 1015.7
2019-Dec-08 15:00N 17°30' W 063°06'0 0.0 1016.3
2019-Dec-08 14:00N 17°30' W 063°06'6 5.7 1016.5
2019-Dec-08 13:00N 17°30' W 063°00'2 8.2 1016.4
2019-Dec-08 12:46N 17°28' W 063°00'2 2.3
2019-Dec-08 12:00N 17°30' W 063°00'8 8.3 1015.9
2019-Dec-08 11:00N 17°24' W 062°54'1313.3 1015.2
2019-Dec-08 10:00N 17°12' W 062°48'8 8.3 1014.3
2019-Dec-08 09:00N 17°06' W 062°42'211.3 1013.9
2019-Dec-08 08:47N 17°04' W 062°41'6 7.6
2019-Dec-08 08:00N 17°00' W 062°36'1313.3 1013.7
2019-Dec-08 07:00N 16°48' W 062°30'8 8.3 1013.4
2019-Dec-08 06:00N 16°42' W 062°24'8 8.3 1013.9
2019-Dec-08 05:00N 16°36' W 062°18'8 8.3 1014.4
2019-Dec-08 04:00N 16°30' W 062°12'1313.3 1014.7
2019-Dec-08 03:00N 16°18' W 062°06'8 8.3 1015.0
2019-Dec-08 02:00N 16°12' W 062°00'8 8.3 1015.4
2019-Dec-08 01:00N 16°06' W 061°54'8 8.3 1015.1
2019-Dec-08 00:00N 16°00' W 061°48'1211.5 1014.8
2019-Dec-07 23:00N 16°00' W 061°36'8 8.3 1014.7
2019-Dec-07 22:00N 16°06' W 061°30'6 6.0 1014.5
2019-Dec-07 21:00N 16°12' W 061°30'0 0.0 1014.1
2019-Dec-07 20:00N 16°12' W 061°30'0 0.0 1013.8
2019-Dec-07 19:00N 16°12' W 061°30'0 0.0 1013.6
2019-Dec-07 18:00N 16°12' W 061°30'0 0.0 1013.6
2019-Dec-07 17:00N 16°12' W 061°30'0 0.0 1014.3
2019-Dec-07 16:00N 16°12' W 061°30'0 0.0 1015.3
2019-Dec-07 15:00N 16°12' W 061°30'0 0.0 1016.0
2019-Dec-07 14:00N 16°12' W 061°30'0 0.0 1016.8
2019-Dec-07 13:00N 16°12' W 061°30'0 0.0 1016.9
2019-Dec-07 12:00N 16°12' W 061°30'0 0.0 1016.6
2019-Dec-07 11:00N 16°12' W 061°30'0 0.0 1015.9
2019-Dec-07 10:00N 16°12' W 061°30'0 0.0 1015.3
2019-Dec-07 09:00N 16°12' W 061°30'0 0.0 1014.9
2019-Dec-07 08:00N 16°12' W 061°30'0 0.0 1014.5
2019-Dec-07 07:00N 16°12' W 061°30'0 0.0 1014.4
2019-Dec-07 06:00N 16°12' W 061°30'0 0.0 1014.8
2019-Dec-07 05:00N 16°12' W 061°30'0 0.0 1015.1
2019-Dec-07 03:00N 16°12' W 061°30'0 0.0 1015.8
2019-Dec-07 02:00N 16°12' W 061°30'0 0.0 1016.2
2019-Dec-07 01:00N 16°12' W 061°30'0 0.0 1016.2
2019-Dec-07 00:00N 16°12' W 061°30'0 0.0 1015.9
2019-Dec-06 23:00N 16°12' W 061°30'0 0.0 1015.6
2019-Dec-06 22:00N 16°12' W 061°30'0 0.0 1015.1
2019-Dec-06 21:00N 16°12' W 061°30'0 0.0 1014.8
2019-Dec-06 20:00N 16°12' W 061°30'0 0.0 1014.3
2019-Dec-06 19:00N 16°12' W 061°30'0 0.0 1014.1
2019-Dec-06 18:00N 16°12' W 061°30'0 0.0 1014.2
2019-Dec-06 17:00N 16°12' W 061°30'0 0.0 1014.7
2019-Dec-06 16:00N 16°12' W 061°30'0 0.0 1015.8
2019-Dec-06 15:00N 16°12' W 061°30'0 0.0 1016.8
2019-Dec-06 14:00N 16°12' W 061°30'0 0.0 1017.4
2019-Dec-06 13:00N 16°12' W 061°30'0 0.0 1017.4
2019-Dec-06 12:00N 16°12' W 061°30'0 0.0 1016.9
2019-Dec-06 11:00N 16°12' W 061°30'0 0.0 1016.3
2019-Dec-06 10:00N 16°12' W 061°30'0 0.0 1015.8
2019-Dec-06 09:00N 16°12' W 061°30'0 0.0 1015.4
2019-Dec-06 08:00N 16°12' W 061°30'0 0.0 1015.2
2019-Dec-06 07:00N 16°12' W 061°30'0 0.0 1015.1
2019-Dec-06 06:00N 16°12' W 061°30'0 0.0 1015.8
2019-Dec-06 05:00N 16°12' W 061°30'0 0.0 1016.5
2019-Dec-06 04:00N 16°12' W 061°30'0 0.0 1017.0
2019-Dec-06 03:00N 16°12' W 061°30'0 0.0 1017.2
2019-Dec-06 02:00N 16°12' W 061°30'0 0.0 1017.3
2019-Dec-06 01:00N 16°12' W 061°30'0 0.0 1016.7
2019-Dec-06 00:00N 16°12' W 061°30'0 0.0 1016.2
2019-Dec-05 23:00N 16°12' W 061°30'0 0.0 1015.6
2019-Dec-05 22:00N 16°12' W 061°30'0 0.0 1014.8
2019-Dec-05 21:00N 16°12' W 061°30'0 0.0 1014.6
2019-Dec-05 20:00N 16°12' W 061°30'0 0.0 1014.1
2019-Dec-05 19:00N 16°12' W 061°30'0 0.0 1014.1
2019-Dec-05 18:00N 16°12' W 061°30'0 0.0 1014.5
2019-Dec-05 17:00N 16°12' W 061°30'0 0.0 1015.3
2019-Dec-05 16:00N 16°12' W 061°30'0 0.0 1016.2
2019-Dec-05 15:00N 16°12' W 061°30'0 0.0 1016.8
2019-Dec-05 14:00N 16°12' W 061°30'0 0.0 1017.2
2019-Dec-05 13:00N 16°12' W 061°30'0 0.0 1017.3
2019-Dec-05 12:00N 16°12' W 061°30'0 0.0 1016.4
2019-Dec-05 11:00N 16°12' W 061°30'0 0.0 1015.8
2019-Dec-05 10:00N 16°12' W 061°30'0 0.0 1015.2
2019-Dec-05 09:00N 16°12' W 061°30'0 0.0 1014.8
2019-Dec-05 08:00N 16°12' W 061°30'0 0.0 1014.3
2019-Dec-05 07:00N 16°12' W 061°30'0 0.0 1014.3
2019-Dec-05 06:00N 16°12' W 061°30'0 0.0 1014.4
2019-Dec-05 05:00N 16°12' W 061°30'0 0.0 1014.8
2019-Dec-05 04:00N 16°12' W 061°30'0 0.0 1015.0
2019-Dec-05 03:00N 16°12' W 061°30'0 0.0 1015.4
2019-Dec-05 02:00N 16°12' W 061°30'0 0.0 1015.6
2019-Dec-05 01:00N 16°12' W 061°30'0 0.0 1015.6
2019-Dec-05 00:00N 16°12' W 061°30'0 0.0 1015.3
2019-Dec-04 23:00N 16°12' W 061°30'0 0.0 1014.6
2019-Dec-04 22:00N 16°12' W 061°30'0 0.0 1014.3
2019-Dec-04 21:00N 16°12' W 061°30'0 0.0 1013.9
2019-Dec-04 20:00N 16°12' W 061°30'0 0.0 1013.5
2019-Dec-04 19:00N 16°12' W 061°30'0 0.0 1013.4
2019-Dec-04 18:00N 16°12' W 061°30'0 0.0 1013.5
2019-Dec-04 17:00N 16°12' W 061°30'0 0.0 1013.9
2019-Dec-04 16:00N 16°12' W 061°30'0 0.0 1015.0
2019-Dec-04 15:00N 16°12' W 061°30'0 0.0 1015.8
2019-Dec-04 14:00N 16°12' W 061°30'0 0.0 1016.3
2019-Dec-04 13:00N 16°12' W 061°30'0 0.0 1016.1
2019-Dec-04 12:00N 16°12' W 061°30'0 0.0 1015.3
2019-Dec-04 11:00N 16°12' W 061°30'0 0.0 1014.8
2019-Dec-04 10:00N 16°12' W 061°30'0 0.0 1014.1
2019-Dec-04 09:00N 16°12' W 061°30'0 0.0 1013.5
2019-Dec-04 08:00N 16°12' W 061°30'0 0.0 1013.5
2019-Dec-04 07:00N 16°12' W 061°30'0 0.0 1013.6
2019-Dec-04 06:00N 16°12' W 061°30'0 0.0 1014.1
2019-Dec-04 05:00N 16°12' W 061°30'0 0.0 1014.6
2019-Dec-04 04:00N 16°12' W 061°30'0 0.0 1015.0
2019-Dec-04 03:00N 16°12' W 061°30'0 0.0 1015.2
2019-Dec-04 02:00N 16°12' W 061°30'0 0.0 1015.5
2019-Dec-04 01:00N 16°12' W 061°30'0 0.0 1015.4
2019-Dec-04 00:00N 16°12' W 061°30'0 0.0 1015.2
2019-Dec-03 23:00N 16°12' W 061°30'0 0.0 1014.7
2019-Dec-03 22:00N 16°12' W 061°30'0 0.0 1014.2
2019-Dec-03 21:00N 16°12' W 061°30'0 0.0 1013.8
2019-Dec-03 20:00N 16°12' W 061°30'0 0.0 1013.5
2019-Dec-03 19:00N 16°12' W 061°30'0 0.0 1013.4
2019-Dec-03 18:00N 16°12' W 061°30'0 0.0 1013.7
2019-Dec-03 17:00N 16°12' W 061°30'0 0.0 1014.6
2019-Dec-03 16:00N 16°12' W 061°30'0 0.0 1015.0
2019-Dec-03 15:00N 16°12' W 061°30'0 0.0 1015.5
2019-Dec-03 14:00N 16°12' W 061°30'8 8.3 1015.9
2019-Dec-03 13:00N 16°06' W 061°24'6 5.8 1015.9
2019-Dec-03 12:00N 16°06' W 061°18'6 5.8 1015.4
2019-Dec-03 11:00N 16°06' W 061°12'6 5.8 1015.2
2019-Dec-03 10:00N 16°06' W 061°06'6 5.8 1014.8
2019-Dec-03 09:00N 16°06' W 061°00'17 8.6 1014.1
2019-Dec-03 07:00N 16°06' W 060°42'1313.0 1014.1
2019-Dec-03 06:00N 16°12' W 060°30'1211.5 1014.5
2019-Dec-03 05:00N 16°12' W 060°18'1211.5 1015.0
2019-Dec-03 04:00N 16°12' W 060°06'6 5.8 1015.4
2019-Dec-03 03:00N 16°12' W 060°00'1211.5 1015.9
2019-Dec-03 02:00N 16°12' W 059°48'1211.5 1016.2
2019-Dec-03 01:00N 16°12' W 059°36'6 5.8 1016.1
2019-Dec-03 00:00N 16°12' W 059°30'1211.5 1015.5
2019-Dec-02 23:00N 16°12' W 059°18'1211.5 1015.1
2019-Dec-02 22:00N 16°12' W 059°06'1211.5 1014.0
2019-Dec-02 21:00N 16°12' W 058°54'6 5.8 1014.0
2019-Dec-02 20:00N 16°12' W 058°48'1211.5 1015.0
2019-Dec-02 19:00N 16°12' W 058°36'1211.5 1014.7
2019-Dec-02 18:00N 16°12' W 058°24'6 5.8 1015.0
2019-Dec-02 17:00N 16°12' W 058°18'1211.5 1015.2
2019-Dec-02 16:00N 16°12' W 058°06'1211.5 1016.0
2019-Dec-02 15:00N 16°12' W 057°54'1211.5 1016.9
2019-Dec-02 14:00N 16°12' W 057°42'6 5.8 1016.9
2019-Dec-02 13:00N 16°12' W 057°36'1211.5 1017.4
2019-Dec-02 12:00N 16°12' W 057°24'1211.5 1016.7
2019-Dec-02 11:00N 16°12' W 057°12'6 5.8 1015.3
2019-Dec-02 10:00N 16°12' W 057°06'1211.5 1015.4
2019-Dec-02 09:00N 16°12' W 056°54'1211.5 1015.0
2019-Dec-02 08:00N 16°12' W 056°42'1211.5 1014.6
2019-Dec-02 07:00N 16°12' W 056°30'6 5.8 1014.8
2019-Dec-02 06:00N 16°12' W 056°24'1211.5 1015.3
2019-Dec-02 05:00N 16°12' W 056°12'1211.5 1015.6
2019-Dec-02 04:00N 16°12' W 056°00'1211.5 1016.1
2019-Dec-02 03:00N 16°12' W 055°48'6 5.8 1016.3
2019-Dec-02 02:00N 16°12' W 055°42'1313.0 1017.0
2019-Dec-02 01:00N 16°18' W 055°30'1211.5 1016.9
2019-Dec-02 00:00N 16°18' W 055°18'1211.5 1016.5
2019-Dec-01 23:00N 16°18' W 055°06'6 5.8 1016.1
2019-Dec-01 22:00N 16°18' W 055°00'1211.5 1016.0
2019-Dec-01 21:00N 16°18' W 054°48'1211.5 1015.3
2019-Dec-01 20:00N 16°18' W 054°36'1211.5 1015.0
2019-Dec-01 19:00N 16°18' W 054°24'6 5.8 1014.8
2019-Dec-01 18:00N 16°18' W 054°18'1211.5 1014.6
2019-Dec-01 17:00N 16°18' W 054°06'1211.5 1015.1
2019-Dec-01 16:00N 16°18' W 053°54'1211.5 1015.9
2019-Dec-01 15:00N 16°18' W 053°42'6 5.8 1016.1
2019-Dec-01 14:00N 16°18' W 053°36'1211.5 1016.3
2019-Dec-01 13:00N 16°18' W 053°24'1211.5 1016.1
2019-Dec-01 12:00N 16°18' W 053°12'1211.5 1015.6
2019-Dec-01 11:00N 16°18' W 053°00'6 5.8 1014.6
2019-Dec-01 10:00N 16°18' W 052°54'1211.5 1013.8
2019-Dec-01 09:00N 16°18' W 052°42'   1013.5

Dump ship's entire track history